Eden, Vermont
Current Conditions -  °F | °C
As of 6:54 PM on Saturday 25 Oct 2014 (Local Time) from KMVL Reporting Station
Light Rain Light Rain  
Wind Chill: 49°   Ceiling: 6000
Heat Index: 49°   Visibility: 6mi
Dew Point: 47°   Wind: 0mph
Humidity: 93%   Direction: NA
Pressure: 29.53"   Gusts: NA
Location:  44.71°N, 72.55°W
Report Text: KMVL 252254Z AUTO 00000KT 6SM -RA BR FEW050 BKN060 OVC070 09/08 A2953 RMK AO2 SLP005 P0002 T00940083
Loading
Personal Weather Stations






























Interactive Weather Map
Tropical Storm Tracking
New forecast layout! Learn more

10-Day Weather Forecast

Advertisements
Track Severe Weather on mobile